createdAt,value
2022-12-09T00:00:36.002Z,93.86
2022-12-09T00:04:38.368Z,93.31
2022-12-09T00:08:40.683Z,93.58
2022-12-09T00:12:43.068Z,92.22
2022-12-09T00:16:45.163Z,93.40
2022-12-09T00:20:47.452Z,94.25
2022-12-09T00:24:49.461Z,94.50
2022-12-09T00:28:52.452Z,94.89
2022-12-09T00:32:54.809Z,94.55
2022-12-09T00:36:57.062Z,95.05
2022-12-09T00:40:59.075Z,95.05
2022-12-09T00:45:01.292Z,95.73
2022-12-09T00:49:04.562Z,97.66
2022-12-09T00:53:06.628Z,96.88
2022-12-09T00:57:08.849Z,96.90
2022-12-09T01:01:12.452Z,96.96
2022-12-09T01:05:14.980Z,96.46
2022-12-09T01:09:17.897Z,96.56
2022-12-09T01:13:20.110Z,96.87
2022-12-09T01:17:22.712Z,96.99
2022-12-09T01:21:25.938Z,95.28
2022-12-09T01:25:28.384Z,95.26
2022-12-09T01:29:30.453Z,95.39
2022-12-09T01:33:32.751Z,94.92
2022-12-09T01:37:36.682Z,94.65
2022-12-09T01:41:38.855Z,95.29
2022-12-09T01:45:42.904Z,95.57
2022-12-09T01:49:48.231Z,94.72
2022-12-09T01:53:51.502Z,94.91
2022-12-09T01:57:54.939Z,94.51
2022-12-09T02:02:00.834Z,95.42
2022-12-09T02:06:03.253Z,95.49
2022-12-09T02:10:11.307Z,95.08
2022-12-09T02:14:31.519Z,95.08
2022-12-09T02:18:52.869Z,95.33
2022-12-09T02:23:07.507Z,95.48
2022-12-09T02:27:32.540Z,95.24
2022-12-09T02:31:43.683Z,93.47
2022-12-09T02:35:58.026Z,93.57
2022-12-09T02:40:24.950Z,95.04
2022-12-09T02:44:27.879Z,95.12
2022-12-09T02:48:36.363Z,95.01
2022-12-09T02:52:42.196Z,94.96
2022-12-09T02:56:55.084Z,95.29
2022-12-09T03:00:58.966Z,95.21
2022-12-09T03:05:23.994Z,95.47
2022-12-09T03:09:35.086Z,95.40
2022-12-09T03:13:48.109Z,96.59
2022-12-09T03:17:53.399Z,97.26
2022-12-09T03:22:03.381Z,98.00
2022-12-09T03:26:06.728Z,97.96
2022-12-09T03:30:11.146Z,98.97
2022-12-09T03:34:18.327Z,99.34
2022-12-09T03:38:22.854Z,99.28
2022-12-09T03:42:36.226Z,99.18
2022-12-09T03:46:38.747Z,99.78
2022-12-09T03:50:52.647Z,98.87
2022-12-09T03:55:01.695Z,98.99
2022-12-09T03:59:07.913Z,99.55
2022-12-09T04:03:12.883Z,99.17
2022-12-09T04:07:15.363Z,98.20
2022-12-09T04:11:17.721Z,97.98
2022-12-09T04:15:20.052Z,98.08
2022-12-09T04:19:22.150Z,97.74
2022-12-09T04:23:24.492Z,98.39
2022-12-09T04:27:26.867Z,98.52
2022-12-09T04:31:29.154Z,96.67
2022-12-09T04:35:31.250Z,98.33
2022-12-09T04:39:33.759Z,98.95
2022-12-09T04:43:36.397Z,99.14
2022-12-09T04:47:38.600Z,97.67
2022-12-09T04:51:40.990Z,98.02
2022-12-09T04:55:43.116Z,98.91
2022-12-09T04:59:45.824Z,97.92
2022-12-09T05:03:50.195Z,98.48
2022-12-09T05:07:52.600Z,98.88
2022-12-09T05:11:58.124Z,100.00
2022-12-09T05:16:01.960Z,100.00
2022-12-09T05:20:05.204Z,100.00
2022-12-09T05:24:07.797Z,100.00
2022-12-09T05:28:10.054Z,100.00
2022-12-09T05:32:12.501Z,100.00
2022-12-09T05:36:17.072Z,100.00
2022-12-09T05:40:19.476Z,100.00
2022-12-09T05:44:23.248Z,100.00
2022-12-09T05:48:25.673Z,100.00
2022-12-09T05:52:27.953Z,100.00
2022-12-09T05:56:30.979Z,100.00
2022-12-09T06:00:33.090Z,100.00
2022-12-09T06:04:35.327Z,100.00
2022-12-09T06:08:38.753Z,100.00
2022-12-09T06:12:41.694Z,100.00
2022-12-09T06:16:44.066Z,100.00
2022-12-09T06:20:46.643Z,100.00
2022-12-09T06:24:52.746Z,100.00
2022-12-09T06:28:59.787Z,100.00
2022-12-09T06:33:02.358Z,100.00
2022-12-09T06:37:06.925Z,100.00
2022-12-09T06:41:11.257Z,100.00
2022-12-09T06:45:14.042Z,100.00
2022-12-09T06:49:16.649Z,100.00
2022-12-09T06:53:18.859Z,100.00
2022-12-09T06:57:21.208Z,100.00
2022-12-09T07:01:25.458Z,100.00
2022-12-09T07:05:28.790Z,100.00
2022-12-09T07:09:31.032Z,100.00
2022-12-09T07:13:33.240Z,100.00
2022-12-09T07:17:35.432Z,100.00
2022-12-09T07:21:38.358Z,100.00
2022-12-09T07:25:40.743Z,100.00
2022-12-09T07:29:43.294Z,100.00
2022-12-09T07:33:45.537Z,100.00
2022-12-09T07:37:48.159Z,100.00
2022-12-09T07:41:55.720Z,100.00
2022-12-09T07:45:58.118Z,100.00
2022-12-09T07:50:06.196Z,100.00
2022-12-09T07:54:17.117Z,100.00
2022-12-09T07:58:19.272Z,100.00
2022-12-09T08:02:21.483Z,100.00
2022-12-09T08:06:26.224Z,100.00
2022-12-09T08:10:29.149Z,100.00
2022-12-09T08:14:31.600Z,100.00
2022-12-09T08:18:34.954Z,100.00
2022-12-09T08:22:37.691Z,100.00
2022-12-09T08:26:41.143Z,100.00
2022-12-09T08:30:43.569Z,100.00
2022-12-09T08:34:46.062Z,99.99
2022-12-09T08:38:48.788Z,100.00
2022-12-09T08:42:51.302Z,100.00
2022-12-09T08:46:53.777Z,98.43
2022-12-09T08:50:56.170Z,96.99
2022-12-09T08:54:58.540Z,97.49
2022-12-09T08:59:00.794Z,98.63
2022-12-09T09:03:03.171Z,98.45
2022-12-09T09:07:05.901Z,99.08
2022-12-09T09:11:14.274Z,100.00
2022-12-09T09:15:17.528Z,100.00
2022-12-09T09:19:22.661Z,100.00
2022-12-09T09:23:26.223Z,97.53
2022-12-09T09:27:28.500Z,96.44
2022-12-09T09:31:30.596Z,96.24
2022-12-09T09:35:33.620Z,96.73
2022-12-09T09:39:35.655Z,96.90
2022-12-09T09:43:39.004Z,95.96
2022-12-09T09:47:46.282Z,93.42
2022-12-09T09:51:49.241Z,93.13
2022-12-09T09:56:07.801Z,92.50
2022-12-09T10:00:32.658Z,91.08
2022-12-09T10:05:04.894Z,89.90
2022-12-09T10:09:32.141Z,91.04
2022-12-09T10:14:09.984Z,90.63
2022-12-09T10:18:40.436Z,88.27
2022-12-09T10:22:52.267Z,88.13
2022-12-09T10:27:06.350Z,88.20
2022-12-09T10:31:11.093Z,88.78
2022-12-09T10:35:28.078Z,86.06
2022-12-09T10:39:31.117Z,86.82
2022-12-09T10:43:39.561Z,85.09
2022-12-09T10:47:49.904Z,87.73
2022-12-09T10:51:54.092Z,87.32
2022-12-09T10:55:58.883Z,89.78
2022-12-09T11:00:19.839Z,90.53
2022-12-09T11:04:40.487Z,88.25
2022-12-09T11:08:50.512Z,85.77
2022-12-09T11:12:56.035Z,87.14
2022-12-09T11:17:41.486Z,88.17
2022-12-09T11:21:43.859Z,87.63
2022-12-09T11:25:57.755Z,88.07
2022-12-09T11:30:14.311Z,86.14
2022-12-09T11:34:27.334Z,84.75
2022-12-09T11:38:46.219Z,83.75
2022-12-09T11:42:53.585Z,83.79
2022-12-09T11:47:11.259Z,85.93
2022-12-09T11:51:35.215Z,86.67
2022-12-09T11:55:51.912Z,87.95
2022-12-09T11:59:59.742Z,89.57
2022-12-09T12:04:07.756Z,90.03
2022-12-09T12:08:25.688Z,89.47
2022-12-09T12:12:34.859Z,88.69
2022-12-09T12:16:52.486Z,90.14
2022-12-09T12:21:15.870Z,89.98
2022-12-09T12:25:36.122Z,90.07
2022-12-09T12:29:58.452Z,89.67
2022-12-09T12:34:28.278Z,89.25
2022-12-09T12:38:37.083Z,89.19
2022-12-09T12:43:11.241Z,91.77
2022-12-09T12:47:25.520Z,93.46
2022-12-09T12:51:54.757Z,93.16
2022-12-09T12:56:14.649Z,92.39
2022-12-09T13:00:23.963Z,92.74
2022-12-09T13:04:48.967Z,93.36
2022-12-09T13:09:03.088Z,92.49
2022-12-09T13:13:17.383Z,92.29
2022-12-09T13:17:25.298Z,91.11
2022-12-09T13:21:27.348Z,91.66
2022-12-09T13:25:39.029Z,92.01
2022-12-09T13:29:54.555Z,90.82
2022-12-09T13:34:18.246Z,91.73
2022-12-09T13:38:36.345Z,90.06
2022-12-09T13:43:09.232Z,90.44
2022-12-09T13:47:24.365Z,90.47
2022-12-09T13:51:27.493Z,89.71
2022-12-09T13:55:35.562Z,87.67
2022-12-09T13:59:44.490Z,87.51
2022-12-09T14:04:01.426Z,88.22
2022-12-09T14:08:16.246Z,89.59
2022-12-09T14:12:28.168Z,90.19
2022-12-09T14:16:30.143Z,90.41
2022-12-09T14:20:36.231Z,91.43
2022-12-09T14:24:38.629Z,92.73
2022-12-09T14:28:52.166Z,93.64
2022-12-09T14:32:55.714Z,93.78
2022-12-09T14:37:32.953Z,95.30
2022-12-09T14:41:44.656Z,95.12
2022-12-09T14:46:06.464Z,95.31
2022-12-09T14:50:15.520Z,94.52
2022-12-09T14:54:23.713Z,92.38
2022-12-09T14:58:27.456Z,91.98
2022-12-09T15:02:31.758Z,91.63
2022-12-09T15:06:34.886Z,91.31
2022-12-09T15:10:38.311Z,89.26
2022-12-09T15:14:41.635Z,90.04
2022-12-09T15:18:45.706Z,89.23
2022-12-09T15:22:53.188Z,89.95
2022-12-09T15:26:58.778Z,89.32
2022-12-09T15:31:03.911Z,90.06
2022-12-09T15:35:17.959Z,89.12
2022-12-09T15:39:25.670Z,88.37
2022-12-09T15:43:28.120Z,88.77
2022-12-09T15:47:35.828Z,89.05
2022-12-09T15:51:39.125Z,87.09
2022-12-09T15:55:50.399Z,88.42
2022-12-09T15:59:57.977Z,87.51
2022-12-09T16:04:01.645Z,87.53
2022-12-09T16:08:03.795Z,87.89
2022-12-09T16:12:24.902Z,86.85
2022-12-09T16:16:51.304Z,86.48
2022-12-09T16:21:24.796Z,86.17
2022-12-09T16:25:29.790Z,85.60
2022-12-09T16:29:35.418Z,86.61
2022-12-09T16:33:39.449Z,87.07
2022-12-09T16:38:16.004Z,86.86
2022-12-09T16:42:40.750Z,87.29
2022-12-09T16:46:43.832Z,87.12
2022-12-09T16:50:57.035Z,86.91
2022-12-09T16:54:59.448Z,87.26
2022-12-09T16:59:01.482Z,87.27
2022-12-09T17:03:09.196Z,87.68
2022-12-09T17:07:11.356Z,87.04
2022-12-09T17:11:14.550Z,87.84
2022-12-09T17:15:19.108Z,88.21
2022-12-09T17:19:23.959Z,89.61
2022-12-09T17:23:25.958Z,89.88
2022-12-09T17:27:28.021Z,90.92
2022-12-09T17:31:30.294Z,91.11
2022-12-09T17:35:37.811Z,91.84
2022-12-09T17:39:39.759Z,92.25
2022-12-09T17:43:42.983Z,92.94
2022-12-09T17:47:44.959Z,93.32
2022-12-09T17:51:47.399Z,93.81
2022-12-09T17:55:49.426Z,94.40
2022-12-09T17:59:51.437Z,95.49
2022-12-09T18:04:02.621Z,96.83
2022-12-09T18:08:08.440Z,97.28
2022-12-09T18:12:10.488Z,97.29
2022-12-09T18:16:13.350Z,96.53
2022-12-09T18:20:15.459Z,97.34
2022-12-09T18:24:18.211Z,96.74
2022-12-09T18:28:20.374Z,96.61
2022-12-09T18:32:22.446Z,95.78
2022-12-09T18:36:27.565Z,95.59
2022-12-09T18:40:29.593Z,95.57
2022-12-09T18:44:31.578Z,95.32
2022-12-09T18:48:33.586Z,95.05
2022-12-09T18:52:36.836Z,94.21
2022-12-09T18:56:38.829Z,94.54
2022-12-09T19:00:40.859Z,93.90
2022-12-09T19:04:42.992Z,93.39
2022-12-09T19:08:45.039Z,94.38
2022-12-09T19:12:49.740Z,94.13
2022-12-09T19:16:54.008Z,93.19
2022-12-09T19:20:56.012Z,92.16
2022-12-09T19:24:58.070Z,94.27
2022-12-09T19:29:07.658Z,96.25
2022-12-09T19:33:09.736Z,98.15
2022-12-09T19:37:12.512Z,98.78
2022-12-09T19:41:14.557Z,99.31
2022-12-09T19:45:16.683Z,100.00
2022-12-09T19:49:20.272Z,100.00
2022-12-09T19:53:22.280Z,100.00
2022-12-09T19:57:24.269Z,99.63
2022-12-09T20:01:29.049Z,99.02
2022-12-09T20:05:31.082Z,98.13
2022-12-09T20:09:33.105Z,97.42
2022-12-09T20:13:35.247Z,98.03
2022-12-09T20:17:37.243Z,96.42
2022-12-09T20:21:40.418Z,98.12
2022-12-09T20:25:42.490Z,98.10
2022-12-09T20:29:44.474Z,96.28
2022-12-09T20:33:47.524Z,95.18
2022-12-09T20:37:49.616Z,97.13
2022-12-09T20:41:51.703Z,98.01
2022-12-09T20:45:53.759Z,99.23
2022-12-09T20:49:55.823Z,97.38
2022-12-09T20:53:58.553Z,99.47
2022-12-09T20:58:00.659Z,98.52
2022-12-09T21:02:02.767Z,98.15
2022-12-09T21:06:05.428Z,96.72
2022-12-09T21:10:08.004Z,96.23
2022-12-09T21:14:11.448Z,96.30
2022-12-09T21:18:13.486Z,97.38
2022-12-09T21:22:15.525Z,96.70
2022-12-09T21:26:18.814Z,96.48
2022-12-09T21:30:20.924Z,94.69
2022-12-09T21:34:24.563Z,94.50
2022-12-09T21:38:26.779Z,94.30
2022-12-09T21:42:28.884Z,97.38
2022-12-09T21:46:33.803Z,97.59
2022-12-09T21:50:35.810Z,96.51
2022-12-09T21:54:38.193Z,95.72
2022-12-09T21:58:40.180Z,95.82
2022-12-09T22:02:44.174Z,93.83
2022-12-09T22:06:48.593Z,94.53
2022-12-09T22:10:50.559Z,92.65
2022-12-09T22:14:52.563Z,93.79
2022-12-09T22:18:57.103Z,94.74
2022-12-09T22:22:59.254Z,93.51
2022-12-09T22:27:01.319Z,92.62
2022-12-09T22:31:21.782Z,91.85
2022-12-09T22:35:23.763Z,91.17
2022-12-09T22:39:25.806Z,91.41
2022-12-09T22:43:31.456Z,91.14
2022-12-09T22:47:37.046Z,91.46
2022-12-09T22:51:39.723Z,91.54
2022-12-09T22:55:47.897Z,91.48
2022-12-09T22:59:49.896Z,92.04
2022-12-09T23:03:53.569Z,91.18
2022-12-09T23:07:55.594Z,90.40
2022-12-09T23:11:57.704Z,92.19
2022-12-09T23:16:01.192Z,91.69
2022-12-09T23:20:03.430Z,91.50
2022-12-09T23:24:10.280Z,92.53
2022-12-09T23:28:12.290Z,93.47
2022-12-09T23:32:14.282Z,93.73
2022-12-09T23:36:22.764Z,92.73
2022-12-09T23:40:24.809Z,92.20
2022-12-09T23:44:26.816Z,92.05
2022-12-09T23:48:29.044Z,91.79
2022-12-09T23:52:31.056Z,92.25
2022-12-09T23:56:38.408Z,92.26
